Time;durP1;ratioP1;P1;durP2;ratioP2;P2;SDS_P1;SDS_P2;PMS_P1;PMS_P2;Temp;Humidity;BMP_temperature;BMP_pressure;BME280_temperature;BME280_humidity;BME280_pressure;Samples;Min_cycle;Max_cycle;Signal;HPM_P1;HPM_P2
2023/01/15 00:00:04;;;;;;;6.82;0.30;;;;;;;-146.25;99.00;52512.16;2087324;28;41799;-76
2023/01/15 00:01:24;;;;;;;5.38;0.40;;;;;;;-146.25;99.21;52500.00;2087339;28;41650;-76
2023/01/15 00:02:26;;;;;;;9.07;0.30;;;;;;;-146.25;99.43;52497.97;2087731;28;37177;-76
2023/01/15 00:03:28;;;;;;;3.03;0.22;;;;;;;-146.25;98.82;52518.25;2088062;28;35028;-76
2023/01/15 00:04:30;;;;;;;2.83;0.20;;;;;;;-146.25;99.13;52473.63;2088309;28;39963;-76
2023/01/15 00:05:35;;;;;;;4.32;0.30;;;;;;;-146.25;98.73;52471.59;2088276;28;40834;-76
2023/01/15 00:06:40;;;;;;;5.65;0.30;;;;;;;-146.25;98.27;52524.31;2088174;28;36380;-76
2023/01/15 00:07:42;;;;;;;5.03;0.20;;;;;;;-146.25;98.43;52542.56;2088429;28;38426;-76
2023/01/15 00:08:45;;;;;;;6.85;0.35;;;;;;;-146.25;98.19;52506.06;2088563;28;20108;-76
2023/01/15 00:09:47;;;;;;;5.28;0.40;;;;;;;-146.25;98.99;52487.81;2088291;28;40925;-76
2023/01/15 00:10:48;;;;;;;4.00;0.25;;;;;;;-146.25;98.70;52485.81;2087865;28;38670;-76
2023/01/15 00:11:50;;;;;;;4.10;0.40;;;;;;;-146.25;98.64;52514.19;2087702;28;36874;-76
2023/01/15 00:12:52;;;;;;;5.32;0.40;;;;;;;-146.25;98.99;52516.22;2087639;28;35204;-76
2023/01/15 00:13:55;;;;;;;5.32;0.30;;;;;;;-146.25;98.65;52522.28;2089003;28;20041;-77
2023/01/15 00:14:57;;;;;;;4.13;0.47;;;;;;;-146.25;98.22;52530.41;2087521;28;38082;-76
2023/01/15 00:16:30;;;;;;;5.55;0.40;;;;;;;-146.25;97.76;52493.91;2088063;28;30682;-77
2023/01/15 00:17:31;;;;;;;2.92;0.20;;;;;;;-146.25;97.96;52491.88;2084296;28;34648;-76
2023/01/15 00:18:33;;;;;;;5.78;0.30;;;;;;;-146.25;97.78;52481.75;2087956;28;42940;-76
2023/01/15 00:19:35;;;;;;;5.70;0.70;;;;;;;-146.25;97.65;52510.13;2088097;28;41129;-76
2023/01/15 00:20:39;;;;;;;8.95;0.35;;;;;;;-146.25;97.26;52477.69;2088180;28;39659;-76
2023/01/15 00:21:41;;;;;;;3.97;0.50;;;;;;;-146.25;97.64;52506.06;2096937;28;20618;-75
2023/01/15 00:22:42;;;;;;;7.18;0.30;;;;;;;-146.25;96.71;52485.81;2096394;28;41239;-76
2023/01/15 00:27:50;;;;;;;4.65;0.30;;;;;;;-146.25;96.81;52542.56;2096539;28;31098;-76
2023/01/15 00:28:51;;;;;;;8.35;0.20;;;;;;;-146.25;96.56;52516.22;2096875;28;37615;-75
2023/01/15 00:29:53;;;;;;;4.68;0.20;;;;;;;-146.25;96.92;52473.63;2095493;28;39883;-76
2023/01/15 00:30:55;;;;;;;8.23;0.40;;;;;;;-146.25;96.85;52528.38;2096078;28;35033;-76
2023/01/15 00:31:58;;;;;;;5.65;0.20;;;;;;;-146.25;96.23;52510.13;2087463;28;32680;-76
2023/01/15 00:33:00;;;;;;;4.32;0.20;;;;;;;-146.25;96.45;52497.97;2079783;28;31394;-76
2023/01/15 00:34:02;;;;;;;5.53;0.40;;;;;;;-146.25;96.41;52489.84;2079458;28;34899;-76
2023/01/15 00:35:05;;;;;;;2.33;0.10;;;;;;;-146.25;96.58;52495.94;2079705;28;33354;-77
2023/01/15 00:36:07;;;;;;;4.88;0.22;;;;;;;-146.25;96.32;52530.41;2088760;28;20072;-77
2023/01/15 00:37:08;;;;;;;5.68;0.40;;;;;;;-146.25;96.05;52491.88;2087715;28;29946;-76
2023/01/15 00:38:10;;;;;;;7.18;0.38;;;;;;;-146.25;95.67;52471.59;2079464;28;34251;-76
2023/01/15 00:39:14;;;;;;;4.13;0.30;;;;;;;-146.25;95.79;52502.03;2078761;28;28176;-76
2023/01/15 00:40:18;;;;;;;4.32;0.30;;;;;;;-146.25;95.27;52455.38;2088470;28;20035;-77
2023/01/15 00:41:20;;;;;;;4.50;0.40;;;;;;;-146.25;95.55;52500.00;2096377;28;36439;-77
2023/01/15 00:42:23;;;;;;;2.45;0.40;;;;;;;-146.25;95.56;52481.75;2088452;28;20910;-77
2023/01/15 00:43:24;;;;;;;4.03;0.43;;;;;;;-146.25;95.18;52495.94;2087440;28;33727;-76
2023/01/15 00:44:26;;;;;;;6.60;0.40;;;;;;;-146.25;95.52;52508.09;2081643;28;33010;-77
2023/01/15 00:45:28;;;;;;;3.65;0.28;;;;;;;-146.25;95.27;52526.34;2092552;28;28224;-77
2023/01/15 00:46:33;;;;;;;3.08;0.25;;;;;;;-146.25;95.53;52506.06;2088192;28;20641;-77
2023/01/15 00:47:37;;;;;;;6.22;0.30;;;;;;;-146.25;95.60;52497.97;2088552;28;20064;-77
2023/01/15 00:48:39;;;;;;;2.60;0.20;;;;;;;-146.25;95.22;52477.69;2096585;28;31985;-77
2023/01/15 00:49:44;;;;;;;5.78;0.50;;;;;;;-146.25;95.61;52506.06;2088470;28;20119;-77
2023/01/15 00:50:46;;;;;;;6.68;0.40;;;;;;;-146.25;95.77;52528.38;2088465;28;20088;-76
2023/01/15 00:51:50;;;;;;;5.88;0.40;;;;;;;-146.25;95.10;52487.81;2079821;28;20037;-77
2023/01/15 00:52:52;;;;;;;4.60;0.40;;;;;;;-146.25;95.25;52510.13;2072387;28;20891;-77
2023/01/15 00:53:54;;;;;;;6.50;0.22;;;;;;;-146.25;94.90;52453.34;2080014;28;20080;-77
2023/01/15 00:54:56;;;;;;;3.53;0.25;;;;;;;-146.25;95.08;52485.81;2080072;28;21819;-77
2023/01/15 00:55:57;;;;;;;4.30;0.20;;;;;;;-146.25;95.39;52520.28;2079809;28;20779;-76
2023/01/15 00:57:01;;;;;;;7.85;0.40;;;;;;;-146.25;95.11;52483.78;2064198;28;20090;-77
2023/01/15 00:58:03;;;;;;;3.35;0.30;;;;;;;-146.25;94.96;52497.97;2064453;28;20920;-76
2023/01/15 00:59:05;;;;;;;4.72;0.32;;;;;;;-146.25;94.78;52518.25;2071755;28;20077;-77
2023/01/15 01:00:08;;;;;;;5.97;0.30;;;;;;;-146.25;94.99;52526.34;2072142;28;20214;-77
2023/01/15 01:01:10;;;;;;;6.07;0.47;;;;;;;-146.25;95.41;52518.25;2080439;28;20927;-77
2023/01/15 01:02:14;;;;;;;6.28;0.45;;;;;;;-146.25;94.78;52469.56;2072568;28;20921;-77
2023/01/15 01:03:16;;;;;;;8.23;0.40;;;;;;;-146.25;95.05;52548.66;2080347;28;20826;-77
2023/01/15 01:04:18;;;;;;;4.85;0.30;;;;;;;-146.25;95.54;52510.13;2089053;28;33052;-77
2023/01/15 01:05:22;;;;;;;5.60;0.30;;;;;;;-146.25;94.69;52512.16;2094219;28;20037;-77
2023/01/15 01:06:24;;;;;;;7.80;0.40;;;;;;;-146.25;94.85;52512.16;2097400;28;21191;-77
2023/01/15 01:07:26;;;;;;;6.00;0.40;;;;;;;-146.25;94.54;52477.69;2088573;28;20045;-77
2023/01/15 01:08:29;;;;;;;4.25;0.50;;;;;;;-146.25;95.29;52473.63;2088479;28;29390;-77
2023/01/15 01:09:30;;;;;;;5.63;0.30;;;;;;;-146.25;95.16;52530.41;2088061;28;30333;-77
2023/01/15 01:10:33;;;;;;;7.25;0.45;;;;;;;-146.25;95.15;52518.25;2087730;28;34511;-77
2023/01/15 01:11:35;;;;;;;6.57;0.40;;;;;;;-146.25;94.85;52489.84;2096624;28;35341;-77
2023/01/15 01:12:37;;;;;;;6.65;0.30;;;;;;;-146.25;95.38;52506.06;2096686;28;20548;-77
2023/01/15 01:13:39;;;;;;;8.73;0.40;;;;;;;-146.25;94.58;52495.94;2096502;28;20652;-77
2023/01/15 01:14:43;;;;;;;7.05;0.40;;;;;;;-146.25;94.83;52542.56;2097527;28;20044;-77
2023/01/15 01:15:45;;;;;;;5.25;0.35;;;;;;;-146.25;94.84;52495.94;2087342;28;34685;-77
2023/01/15 01:16:46;;;;;;;7.22;0.40;;;;;;;-146.25;95.57;52520.28;2079720;28;34398;-76
2023/01/15 01:17:48;;;;;;;6.75;0.30;;;;;;;-146.25;95.00;52467.56;2087801;28;37446;-77
2023/01/15 01:18:50;;;;;;;3.47;0.30;;;;;;;-146.25;94.90;52497.97;2095824;28;28883;-76
2023/01/15 01:19:54;;;;;;;6.13;0.20;;;;;;;-146.25;94.95;52469.56;2087602;28;37636;-77
2023/01/15 01:20:56;;;;;;;7.88;0.20;;;;;;;-146.25;95.10;52485.81;2088230;28;30381;-77
2023/01/15 01:21:57;;;;;;;4.57;0.30;;;;;;;-146.25;95.03;52534.47;2096446;28;39503;-77
2023/01/15 01:22:59;;;;;;;10.07;0.40;;;;;;;-146.25;94.92;52506.06;2097185;28;28856;-77
2023/01/15 01:24:04;;;;;;;6.35;0.40;;;;;;;-146.25;94.53;52512.16;2088395;28;20042;-78
2023/01/15 01:25:07;;;;;;;12.55;0.50;;;;;;;-146.25;94.61;52473.63;2080880;28;20096;-77
2023/01/15 01:26:14;;;;;;;9.10;0.57;;;;;;;-146.25;94.21;52508.09;2080459;28;20053;-77
2023/01/15 01:27:18;;;;;;;5.63;0.40;;;;;;;-146.25;94.13;52516.22;2089052;28;20037;-76
2023/01/15 01:28:19;;;;;;;3.63;0.40;;;;;;;-146.25;94.02;52497.97;2087422;28;34099;-77
2023/01/15 01:29:22;;;;;;;10.18;0.50;;;;;;;-146.25;94.28;52481.75;2087862;28;36241;-77
2023/01/15 01:30:24;;;;;;;9.32;0.73;;;;;;;-146.25;93.85;52495.94;2097013;28;23391;-77
2023/01/15 01:31:26;;;;;;;7.88;0.75;;;;;;;-146.25;94.00;52536.50;2091698;28;31552;-78
2023/01/15 01:32:27;;;;;;;8.23;0.38;;;;;;;-146.25;94.33;52510.13;2095999;28;27270;-78
2023/01/15 01:33:30;;;;;;;6.38;0.30;;;;;;;-146.25;94.05;52487.81;2096906;28;20032;-79
2023/01/15 01:34:34;;;;;;;6.32;0.32;;;;;;;-146.25;94.69;52504.03;2096610;28;30736;-79
2023/01/15 01:35:35;;;;;;;5.43;0.20;;;;;;;-146.25;94.51;52522.28;2087805;28;33834;-79
2023/01/15 01:36:41;;;;;;;6.82;0.50;;;;;;;-146.25;93.72;52512.16;2088169;28;20041;-78
2023/01/15 01:37:49;;;;;;;4.90;0.50;;;;;;;-146.25;94.03;52493.91;2096607;28;20184;-78
2023/01/15 01:38:54;;;;;;;8.63;0.57;;;;;;;-146.25;94.56;52504.03;2096753;28;35690;-78
2023/01/15 01:39:55;;;;;;;5.75;0.50;;;;;;;-146.25;94.26;52491.88;2087404;28;34915;-78
2023/01/15 01:41:00;;;;;;;5.25;0.30;;;;;;;-146.25;93.73;52495.94;2088409;28;20045;-78
2023/01/15 01:42:02;;;;;;;6.72;0.40;;;;;;;-146.25;93.71;52481.75;2087396;28;35682;-78
2023/01/15 01:43:16;;;;;;;6.68;0.45;;;;;;;-146.25;93.76;52473.63;2087620;28;36895;-78
2023/01/15 01:44:33;;;;;;;6.80;0.40;;;;;;;-146.25;93.81;52512.16;2080038;28;20042;-78
2023/01/15 01:45:38;;;;;;;7.05;0.52;;;;;;;-146.25;94.46;52483.78;2086394;28;23978;-77
2023/01/15 01:46:41;;;;;;;8.20;0.75;;;;;;;-146.25;94.09;52489.84;2095804;28;38040;-77
2023/01/15 01:47:45;;;;;;;5.82;0.30;;;;;;;-146.25;94.03;52518.25;2096819;28;28117;-78
2023/01/15 01:48:49;;;;;;;8.00;0.43;;;;;;;-146.25;93.82;52542.56;2096464;28;34668;-79
2023/01/15 01:50:01;;;;;;;5.57;0.40;;;;;;;-146.25;94.35;52485.81;2096674;28;25915;-78
2023/01/15 01:51:04;;;;;;;5.40;0.40;;;;;;;-146.25;93.72;52500.00;2087861;28;26683;-79
2023/01/15 01:52:14;;;;;;;8.38;0.43;;;;;;;-146.25;94.29;52477.69;2080855;28;20066;-78
2023/01/15 01:53:24;;;;;;;6.55;0.65;;;;;;;-146.25;94.16;52483.78;2072605;28;20046;-79
2023/01/15 01:54:33;;;;;;;8.25;0.50;;;;;;;-146.25;94.05;52473.63;2075451;28;20045;-79
2023/01/15 01:55:37;;;;;;;10.05;0.40;;;;;;;-146.25;93.79;52502.03;2089096;28;20053;-78
2023/01/15 01:56:38;;;;;;;7.55;0.55;;;;;;;-146.25;94.06;52524.31;2087748;28;23594;-78
2023/01/15 01:57:40;;;;;;;6.57;0.60;;;;;;;-146.25;93.94;52526.34;2079343;28;20862;-77
2023/01/15 01:58:48;;;;;;;6.82;0.57;;;;;;;-146.25;93.97;52483.78;2079834;28;20053;-78
2023/01/15 01:59:51;;;;;;;6.72;0.55;;;;;;;-146.25;93.95;52518.25;2079775;28;34358;-78
2023/01/15 02:00:53;;;;;;;3.78;0.40;;;;;;;-146.25;94.18;52502.03;2089528;28;20038;-78
2023/01/15 02:01:55;;;;;;;8.77;0.50;;;;;;;-146.25;94.39;52473.63;2096276;28;29947;-78
2023/01/15 02:02:58;;;;;;;9.60;0.60;;;;;;;-146.25;94.05;52502.03;2096674;28;31071;-78
2023/01/15 02:04:08;;;;;;;8.48;0.50;;;;;;;-146.25;93.38;52483.78;2096818;28;20119;-78
2023/01/15 02:05:18;;;;;;;9.30;0.40;;;;;;;-146.25;93.62;52479.72;2087499;28;34408;-76
2023/01/15 02:06:24;;;;;;;8.00;0.60;;;;;;;-146.25;93.78;52518.25;2081819;28;20042;-78
2023/01/15 02:07:32;;;;;;;5.10;0.40;;;;;;;-146.25;93.59;52510.13;2090412;28;20095;-78
2023/01/15 02:08:34;;;;;;;7.65;0.40;;;;;;;-146.25;93.17;52506.06;2079665;28;20049;-78
2023/01/15 02:09:35;;;;;;;7.03;0.32;;;;;;;-146.25;93.43;52534.47;2072451;28;20035;-77
2023/01/15 02:10:37;;;;;;;6.82;0.57;;;;;;;-146.25;93.51;52489.84;2071602;28;20034;-76
2023/01/15 02:11:39;;;;;;;10.57;0.60;;;;;;;-146.25;93.57;52497.97;2079965;28;20077;-77
2023/01/15 02:12:49;;;;;;;9.35;0.80;;;;;;;-146.25;93.83;52518.25;2088446;28;24758;-78
2023/01/15 02:13:56;;;;;;;7.38;0.63;;;;;;;-146.25;94.13;52489.84;2072117;28;40303;-78
2023/01/15 02:15:12;;;;;;;10.20;0.52;;;;;;;-146.25;93.92;52481.75;2082686;28;30403;-79
2023/01/15 02:16:26;;;;;;;12.48;0.63;;;;;;;-146.25;93.60;52493.91;2079612;28;20104;-78
2023/01/15 02:17:46;;;;;;;8.32;0.40;;;;;;;-146.25;93.70;52485.81;2085436;28;20053;-76
2023/01/15 02:19:29;;;;;;;6.97;0.70;;;;;;;-146.25;93.18;52457.41;2095802;28;39031;-78
2023/01/15 02:20:39;;;;;;;9.30;0.70;;;;;;;-146.25;93.32;52514.19;2070262;28;33998;-77
2023/01/15 02:21:51;;;;;;;6.82;0.50;;;;;;;-146.25;93.78;52500.00;2062599;28;39521;-76
2023/01/15 02:23:05;;;;;;;7.53;0.40;;;;;;;-146.25;92.93;52528.38;2073411;28;20053;-78
2023/01/15 02:24:15;;;;;;;8.60;0.52;;;;;;;-146.25;92.85;52485.81;2079638;28;20042;-76
2023/01/15 02:25:47;;;;;;;7.53;0.50;;;;;;;-146.25;93.28;52500.00;2081106;28;26085;-79
2023/01/15 02:27:14;;;;;;;10.05;0.73;;;;;;;-146.25;92.91;52493.91;2087919;28;36580;-79
2023/01/15 02:28:31;;;;;;;9.13;0.88;;;;;;;-146.25;92.90;52508.09;2079640;28;20046;-78
2023/01/15 02:30:01;;;;;;;8.40;0.35;;;;;;;-146.25;93.24;52508.09;2073668;28;20859;-77
2023/01/15 02:31:28;;;;;;;4.72;0.45;;;;;;;-146.25;92.81;52510.13;2075796;28;20101;-77
2023/01/15 02:32:53;;;;;;;12.55;1.05;;;;;;;-146.25;92.44;52532.44;2083525;28;20037;-76
2023/01/15 02:33:58;;;;;;;8.32;0.50;;;;;;;-146.25;92.04;52491.88;2079382;28;21029;-76
2023/01/15 02:35:27;;;;;;;7.10;0.40;;;;;;;-146.25;92.64;52526.34;2075221;28;20108;-76
2023/01/15 02:36:35;;;;;;;8.45;0.43;;;;;;;-146.25;92.13;52530.41;2071319;28;20050;-77
2023/01/15 02:37:43;;;;;;;14.23;0.88;;;;;;;-146.25;91.98;52465.53;2076184;28;20053;-77
2023/01/15 02:38:53;;;;;;;6.85;0.52;;;;;;;-146.25;91.72;52506.06;2073469;28;20102;-77
2023/01/15 02:39:58;;;;;;;12.38;0.50;;;;;;;-146.25;91.90;52467.56;2071874;28;20168;-77
2023/01/15 02:41:04;;;;;;;6.93;0.43;;;;;;;-146.25;91.95;52510.13;2065578;28;20986;-77
2023/01/15 02:42:12;;;;;;;9.38;0.77;;;;;;;-146.25;91.64;52512.16;2072914;28;20047;-77
2023/01/15 02:43:21;;;;;;;6.93;0.77;;;;;;;-146.25;92.31;52514.19;2072060;28;20935;-77
2023/01/15 02:44:26;;;;;;;7.03;0.50;;;;;;;-146.25;91.85;52504.03;2063757;28;20062;-77
2023/01/15 02:45:35;;;;;;;11.27;0.60;;;;;;;-146.25;92.15;52510.13;2072897;28;20031;-77
2023/01/15 02:46:44;;;;;;;6.72;0.60;;;;;;;-146.25;92.42;52522.28;2079176;28;20875;-77
2023/01/15 02:47:46;;;;;;;7.28;0.50;;;;;;;-146.25;91.46;52481.75;2071435;28;20890;-77
2023/01/15 02:48:54;;;;;;;8.48;0.50;;;;;;;-146.25;91.64;52477.69;2070621;28;35782;-77
2023/01/15 02:50:00;;;;;;;10.20;0.68;;;;;;;-146.25;91.50;52502.03;2066949;28;20952;-77
2023/01/15 02:51:17;;;;;;;7.20;0.65;;;;;;;-146.25;91.10;52495.94;2073622;28;20035;-77
2023/01/15 02:52:32;;;;;;;5.63;0.50;;;;;;;-146.25;91.51;52493.91;2080286;28;30991;-77
2023/01/15 02:53:36;;;;;;;7.78;0.60;;;;;;;-146.25;91.82;52489.84;2087811;28;22913;-76
2023/01/15 02:54:46;;;;;;;7.97;0.63;;;;;;;-146.25;91.60;52500.00;2079595;28;20923;-76
2023/01/15 02:55:53;;;;;;;6.72;0.60;;;;;;;-146.25;91.43;52489.84;2072506;28;20085;-76
2023/01/15 02:57:02;;;;;;;10.07;0.38;;;;;;;-146.25;90.78;52524.31;2072218;28;20090;-76
2023/01/15 02:58:10;;;;;;;8.32;0.40;;;;;;;-146.25;90.68;52493.91;2079479;28;20038;-78
2023/01/15 02:59:21;;;;;;;9.38;0.80;;;;;;;-146.25;90.49;52508.09;2079786;28;20073;-76
2023/01/15 03:00:26;;;;;;;11.25;0.70;;;;;;;-146.25;90.82;52542.56;2081661;28;20164;-78
2023/01/15 03:01:35;;;;;;;8.93;0.60;;;;;;;-146.25;90.38;52481.75;2079305;28;20819;-77
2023/01/15 03:02:46;;;;;;;5.25;0.65;;;;;;;-146.25;90.10;52477.69;2072401;28;20045;-76
2023/01/15 03:04:08;;;;;;;7.53;0.50;;;;;;;-146.25;90.66;52506.06;2072520;28;20089;-76
2023/01/15 03:05:38;;;;;;;11.05;0.73;;;;;;;-146.25;89.95;52526.34;2073925;28;23615;-77
2023/01/15 03:06:47;;;;;;;11.88;0.77;;;;;;;-146.25;89.51;52512.16;2076662;28;20062;-76
2023/01/15 03:08:03;;;;;;;12.73;0.60;;;;;;;-146.25;89.74;52526.34;2072004;28;20042;-78
2023/01/15 03:09:08;;;;;;;8.27;0.63;;;;;;;-146.25;89.78;52518.25;2073679;28;20039;-76
2023/01/15 03:10:10;;;;;;;4.90;0.57;;;;;;;-146.25;89.18;52451.31;2070679;28;20885;-76
2023/01/15 03:11:18;;;;;;;11.30;0.50;;;;;;;-146.25;89.00;52506.06;2071481;28;20054;-78
2023/01/15 03:13:01;;;;;;;9.18;1.23;;;;;;;-146.25;89.51;52491.88;2064659;28;20102;-78
2023/01/15 03:14:22;;;;;;;9.48;0.60;;;;;;;-146.25;89.91;52483.78;2080727;28;20105;-76
2023/01/15 03:16:33;;;;;;;7.35;0.55;;;;;;;-146.25;90.06;52502.03;2087563;28;20862;-76
2023/01/15 03:17:47;;;;;;;8.90;0.63;;;;;;;-146.25;90.21;52510.13;2062738;28;20084;-78
2023/01/15 03:19:00;;;;;;;5.75;0.63;;;;;;;-146.25;89.58;52504.03;2072310;28;25418;-77
2023/01/15 03:20:19;;;;;;;7.78;0.47;;;;;;;-146.25;89.59;52465.53;2075946;28;20890;-77
2023/01/15 03:21:32;;;;;;;6.20;0.65;;;;;;;-146.25;89.89;52508.09;2073478;28;20105;-78
2023/01/15 03:22:40;;;;;;;8.55;0.70;;;;;;;-146.25;89.53;52489.84;2083360;28;20037;-78
2023/01/15 03:23:48;;;;;;;12.50;0.73;;;;;;;-146.25;90.34;52526.34;2087783;28;20124;-76
2023/01/15 03:25:03;;;;;;;6.65;0.57;;;;;;;-146.25;89.22;52485.81;2072521;28;20460;-76
2023/01/15 03:26:10;;;;;;;13.40;0.60;;;;;;;-146.25;90.17;52542.56;2076935;28;20110;-76
2023/01/15 03:27:19;;;;;;;8.32;0.70;;;;;;;-146.25;90.41;52504.03;2079746;28;20300;-76
2023/01/15 03:28:31;;;;;;;8.85;0.60;;;;;;;-146.25;90.08;52510.13;2088144;28;20922;-76
2023/01/15 03:29:38;;;;;;;9.60;0.52;;;;;;;-146.25;89.57;52477.69;2080022;28;33396;-76
2023/01/15 03:30:40;;;;;;;11.93;0.57;;;;;;;-146.25;90.03;52449.31;2072770;28;20843;-78
2023/01/15 03:31:43;;;;;;;8.25;0.60;;;;;;;-146.25;89.79;52520.28;2080698;28;20160;-78
2023/01/15 03:32:48;;;;;;;8.15;0.77;;;;;;;-146.25;89.68;52510.13;2087116;28;20053;-78
2023/01/15 03:33:50;;;;;;;11.77;0.70;;;;;;;-146.25;89.23;52467.56;2071427;28;20054;-78
2023/01/15 03:34:59;;;;;;;8.57;0.68;;;;;;;-146.25;89.08;52477.69;2073217;28;20062;-78
2023/01/15 03:36:03;;;;;;;7.80;0.45;;;;;;;-146.25;89.07;52524.31;2088340;28;20081;-76
2023/01/15 03:37:26;;;;;;;9.45;0.60;;;;;;;-146.25;89.07;52493.91;2087420;28;20973;-76
2023/01/15 03:38:37;;;;;;;6.03;0.50;;;;;;;-146.25;88.20;52500.00;2080038;28;20045;-75
2023/01/15 03:39:41;;;;;;;6.60;0.60;;;;;;;-146.25;88.25;52497.97;2072474;28;20788;-76
2023/01/15 03:41:25;;;;;;;8.80;0.57;;;;;;;-146.25;88.38;52481.75;2076980;28;20906;-76
2023/01/15 03:45:03;;;;;;;8.57;0.52;;;;;;;-146.25;87.35;52500.00;2093309;28;19928;-76
2023/01/15 03:46:19;;;;;;;11.63;0.88;;;;;;;-146.25;87.47;52510.13;2087092;28;20823;-76
2023/01/15 03:47:32;;;;;;;6.65;0.30;;;;;;;-146.25;87.11;52522.28;2072839;28;20876;-76
2023/01/15 03:48:48;;;;;;;8.02;0.63;;;;;;;-146.25;87.16;52504.03;2076126;28;20061;-77
2023/01/15 03:50:07;;;;;;;10.50;0.73;;;;;;;-146.25;87.26;52471.59;2079047;28;20046;-77
2023/01/15 03:52:14;;;;;;;12.10;0.80;;;;;;;-146.25;87.14;52510.13;2079774;28;20166;-76
2023/01/15 03:53:37;;;;;;;12.05;0.77;;;;;;;-146.25;86.43;52493.91;2042682;28;20056;-76
2023/01/15 03:55:00;;;;;;;7.93;0.90;;;;;;;-146.25;86.39;52485.81;2078800;28;21037;-76
2023/01/15 03:56:18;;;;;;;10.50;0.60;;;;;;;-146.25;87.52;52491.88;2081940;28;20054;-78
2023/01/15 03:57:44;;;;;;;9.52;0.70;;;;;;;-146.25;87.05;52500.00;2089818;28;20076;-77
2023/01/15 03:59:35;;;;;;;9.52;0.68;;;;;;;-146.25;87.48;52483.78;2095951;28;20131;-77
2023/01/15 04:00:46;;;;;;;20.92;1.13;;;;;;;-146.25;86.57;52526.34;2046802;28;20060;-77
2023/01/15 04:01:52;;;;;;;10.18;0.70;;;;;;;-146.25;86.79;52516.22;2080108;28;20045;-78
2023/01/15 04:02:58;;;;;;;6.88;0.47;;;;;;;-146.25;86.54;52471.59;2071916;28;20042;-77
2023/01/15 04:04:04;;;;;;;11.93;0.70;;;;;;;-146.25;87.01;52502.03;2073214;28;20046;-77
2023/01/15 04:05:07;;;;;;;12.13;0.82;;;;;;;-146.25;87.21;52487.81;2079337;28;20057;-77
2023/01/15 04:06:09;;;;;;;11.15;0.90;;;;;;;-146.25;86.85;52506.06;2071038;28;20157;-77
2023/01/15 04:07:14;;;;;;;8.77;0.60;;;;;;;-146.25;86.73;52508.09;2079922;28;20053;-77
2023/01/15 04:08:18;;;;;;;7.35;0.60;;;;;;;-146.25;86.87;52489.84;2087730;28;20058;-77
2023/01/15 04:09:23;;;;;;;8.02;1.10;;;;;;;-146.25;86.58;52449.31;2072139;28;20848;-78
2023/01/15 04:10:30;;;;;;;8.55;0.60;;;;;;;-146.25;85.99;52477.69;2080911;28;20046;-77
2023/01/15 04:11:36;;;;;;;10.73;0.70;;;;;;;-146.25;86.49;52483.78;2087337;28;20775;-77
2023/01/15 04:12:39;;;;;;;12.80;0.88;;;;;;;-146.25;86.42;52508.09;2079948;28;20042;-77
2023/01/15 04:13:46;;;;;;;10.50;0.50;;;;;;;-146.25;86.06;52487.81;2079036;28;20136;-78
2023/01/15 04:15:12;;;;;;;11.98;0.70;;;;;;;-146.25;86.36;52512.16;2075476;28;20081;-78
2023/01/15 04:16:28;;;;;;;10.90;1.13;;;;;;;-146.25;85.95;52455.38;2072889;28;20124;-77
2023/01/15 04:17:29;;;;;;;11.55;1.25;;;;;;;-146.25;86.00;52491.88;2073359;28;39987;-78
2023/01/15 04:18:32;;;;;;;8.93;0.68;;;;;;;-146.25;86.72;52495.94;2073337;28;20969;-77
2023/01/15 04:19:33;;;;;;;7.35;0.73;;;;;;;-146.25;86.22;52514.19;2072224;28;20046;-77
2023/01/15 04:20:38;;;;;;;6.50;0.50;;;;;;;-146.25;85.66;52491.88;2072773;28;20181;-77
2023/01/15 04:21:43;;;;;;;10.32;0.70;;;;;;;-146.25;85.83;52510.13;2063971;28;20125;-78
2023/01/15 04:22:45;;;;;;;11.05;0.65;;;;;;;-146.25;86.23;52510.13;2072104;28;41398;-77
2023/01/15 04:23:47;;;;;;;8.48;0.68;;;;;;;-146.25;86.00;52497.97;2088758;28;35804;-77
2023/01/15 04:24:48;;;;;;;11.55;0.90;;;;;;;-146.25;85.64;52481.75;2089213;28;39123;-77
2023/01/15 04:25:50;;;;;;;6.97;0.50;;;;;;;-146.25;85.54;52522.28;2088744;28;38647;-77
2023/01/15 04:26:52;;;;;;;11.18;0.73;;;;;;;-146.25;85.24;52485.81;2088746;28;38310;-78
2023/01/15 04:27:54;;;;;;;6.40;0.65;;;;;;;-146.25;85.70;52516.22;2088838;28;38115;-77
2023/01/15 04:28:56;;;;;;;8.27;0.55;;;;;;;-146.25;85.96;52469.56;2088494;28;38413;-77
2023/01/15 04:29:57;;;;;;;9.65;0.80;;;;;;;-146.25;86.06;52475.66;2088905;28;37080;-77
2023/01/15 04:31:01;;;;;;;9.30;0.82;;;;;;;-146.25;86.21;52534.47;2088680;28;36649;-77
2023/01/15 04:32:03;;;;;;;12.73;0.70;;;;;;;-146.25;86.21;52500.00;2088513;28;30131;-77
2023/01/15 04:33:07;;;;;;;10.95;0.88;;;;;;;-146.25;86.31;52502.03;2088543;28;38150;-77
2023/01/15 04:34:09;;;;;;;8.45;0.60;;;;;;;-146.25;86.42;52465.53;2088286;28;41772;-77
2023/01/15 04:35:11;;;;;;;10.43;0.70;;;;;;;-146.25;86.31;52473.63;2089527;28;20038;-77
2023/01/15 04:36:13;;;;;;;16.00;1.05;;;;;;;-146.25;86.25;52526.34;2088865;28;36726;-77
2023/01/15 04:37:17;;;;;;;10.52;0.70;;;;;;;-146.25;87.16;52475.66;2088674;28;36898;-77
2023/01/15 04:38:19;;;;;;;10.20;0.77;;;;;;;-146.25;86.86;52491.88;2079982;28;34710;-77
2023/01/15 04:39:21;;;;;;;8.55;0.70;;;;;;;-146.25;86.38;52479.72;2079772;28;40653;-77
2023/01/15 04:44:26;;;;;;;8.98;0.55;;;;;;;-146.25;86.44;52487.81;2096846;28;37583;-77
2023/01/15 04:45:28;;;;;;;11.60;0.80;;;;;;;-146.25;86.72;52489.84;2096776;28;40838;-77
2023/01/15 04:46:30;;;;;;;10.35;0.85;;;;;;;-146.25;86.89;52522.28;2096964;28;37351;-77
2023/01/15 04:47:32;;;;;;;9.93;1.05;;;;;;;-146.25;86.83;52495.94;2097210;28;27942;-77
2023/01/15 04:48:38;;;;;;;8.70;0.60;;;;;;;-146.25;86.17;52522.28;2097040;28;36259;-77
2023/01/15 04:49:39;;;;;;;11.38;0.55;;;;;;;-146.25;85.39;52469.56;2096862;28;37608;-77
2023/01/15 04:50:41;;;;;;;10.80;0.88;;;;;;;-146.25;84.78;52500.00;2096516;28;34917;-77
2023/01/15 04:51:46;;;;;;;10.73;0.85;;;;;;;-146.25;85.07;52497.97;2097601;28;20853;-77
2023/01/15 04:52:49;;;;;;;8.10;0.57;;;;;;;-146.25;85.78;52512.16;2096705;28;38052;-77
2023/01/15 04:53:53;;;;;;;12.68;0.60;;;;;;;-146.25;86.19;52497.97;2087805;28;38553;-77
2023/01/15 04:54:55;;;;;;;10.18;1.00;;;;;;;-146.25;85.63;52489.84;2088677;28;39453;-77
2023/01/15 04:56:04;;;;;;;12.23;0.70;;;;;;;-146.25;85.71;52518.25;2096891;28;34956;-77
2023/01/15 04:57:10;;;;;;;11.68;0.60;;;;;;;-146.25;85.82;52510.13;2097780;28;20157;-77
2023/01/15 04:58:12;;;;;;;9.07;0.60;;;;;;;-146.25;85.51;52497.97;2087725;28;40882;-77
2023/01/15 04:59:15;;;;;;;13.15;1.00;;;;;;;-146.25;85.28;52518.25;2088383;28;37315;-77
2023/01/15 05:00:18;;;;;;;17.48;1.17;;;;;;;-146.25;85.15;52485.81;2087823;28;39146;-77
2023/01/15 05:01:19;;;;;;;7.53;0.57;;;;;;;-146.25;85.55;52522.28;2087930;28;41552;-77
2023/01/15 05:02:21;;;;;;;15.32;0.75;;;;;;;-146.25;85.56;52481.75;2096931;28;23304;-77
2023/01/15 05:03:23;;;;;;;4.70;0.60;;;;;;;-146.25;85.79;52473.63;2097131;28;39561;-77
2023/01/15 05:04:25;;;;;;;7.30;0.50;;;;;;;-146.25;85.31;52504.03;2096932;28;36100;-77
2023/01/15 05:05:26;;;;;;;8.23;0.80;;;;;;;-146.25;85.96;52479.72;2097006;28;38753;-77
2023/01/15 05:06:30;;;;;;;11.65;0.98;;;;;;;-146.25;85.57;52495.94;2096650;28;40026;-77
2023/01/15 05:07:33;;;;;;;8.55;0.73;;;;;;;-146.25;85.90;52522.28;2088809;28;20045;-77
2023/01/15 05:08:36;;;;;;;13.30;0.75;;;;;;;-146.25;85.79;52540.53;2088296;28;34037;-77
2023/01/15 05:09:40;;;;;;;10.85;0.60;;;;;;;-146.25;84.88;52473.63;2097163;28;41416;-77
2023/01/15 05:10:41;;;;;;;15.15;0.80;;;;;;;-146.25;85.25;52489.84;2088142;28;20918;-77
2023/01/15 05:11:45;;;;;;;11.75;0.90;;;;;;;-146.25;85.40;52506.06;2087726;28;39633;-77
2023/01/15 05:12:47;;;;;;;11.43;0.85;;;;;;;-146.25;84.88;52493.91;2095712;28;41205;-77
2023/01/15 05:13:51;;;;;;;9.68;0.55;;;;;;;-146.25;85.24;52514.19;2096853;28;36315;-77
2023/01/15 05:14:56;;;;;;;13.88;0.80;;;;;;;-146.25;84.47;52512.16;2097672;28;20155;-77
2023/01/15 05:16:23;;;;;;;10.27;0.68;;;;;;;-146.25;85.10;52477.69;2096737;28;38712;-77
2023/01/15 05:17:25;;;;;;;6.93;0.57;;;;;;;-146.25;84.81;52491.88;2096746;28;34394;-77
2023/01/15 05:18:26;;;;;;;8.65;0.70;;;;;;;-146.25;84.37;52493.91;2096480;28;35592;-77